sensor_id;sensor_type;location;lat;lon;timestamp;P1;durP1;ratioP1;P2;durP2;ratioP2
6517;SDS011;3292;48.944;9.240;2024-01-30T00:00:24;13.80;;;10.30;;
6517;SDS011;3292;48.944;9.240;2024-01-30T00:02:51;10.90;;;9.07;;
6517;SDS011;3292;48.944;9.240;2024-01-30T00:05:17;10.33;;;8.30;;
6517;SDS011;3292;48.944;9.240;2024-01-30T00:07:46;10.57;;;8.70;;
6517;SDS011;3292;48.944;9.240;2024-01-30T00:10:12;13.07;;;9.60;;
6517;SDS011;3292;48.944;9.240;2024-01-30T00:12:39;11.00;;;8.53;;
6517;SDS011;3292;48.944;9.240;2024-01-30T00:15:06;10.70;;;8.73;;
6517;SDS011;3292;48.944;9.240;2024-01-30T00:17:34;13.23;;;9.13;;
6517;SDS011;3292;48.944;9.240;2024-01-30T00:20:02;10.73;;;8.73;;
6517;SDS011;3292;48.944;9.240;2024-01-30T00:22:30;9.87;;;8.73;;
6517;SDS011;3292;48.944;9.240;2024-01-30T00:24:58;10.60;;;8.80;;
6517;SDS011;3292;48.944;9.240;2024-01-30T00:27:25;10.10;;;9.10;;
6517;SDS011;3292;48.944;9.240;2024-01-30T00:29:52;11.13;;;8.40;;
6517;SDS011;3292;48.944;9.240;2024-01-30T00:32:19;10.40;;;8.57;;
6517;SDS011;3292;48.944;9.240;2024-01-30T00:34:47;12.83;;;9.50;;
6517;SDS011;3292;48.944;9.240;2024-01-30T00:37:14;10.67;;;9.63;;
6517;SDS011;3292;48.944;9.240;2024-01-30T00:39:41;13.50;;;9.07;;
6517;SDS011;3292;48.944;9.240;2024-01-30T00:42:10;11.47;;;9.40;;
6517;SDS011;3292;48.944;9.240;2024-01-30T00:44:36;12.27;;;9.73;;
6517;SDS011;3292;48.944;9.240;2024-01-30T00:47:04;11.97;;;9.37;;
6517;SDS011;3292;48.944;9.240;2024-01-30T00:49:31;11.37;;;8.70;;
6517;SDS011;3292;48.944;9.240;2024-01-30T00:51:58;9.87;;;8.17;;
6517;SDS011;3292;48.944;9.240;2024-01-30T00:54:24;12.53;;;9.53;;
6517;SDS011;3292;48.944;9.240;2024-01-30T00:56:51;12.43;;;9.70;;
6517;SDS011;3292;48.944;9.240;2024-01-30T00:59:19;12.57;;;9.63;;
6517;SDS011;3292;48.944;9.240;2024-01-30T01:01:46;11.90;;;9.77;;
6517;SDS011;3292;48.944;9.240;2024-01-30T01:04:13;10.87;;;8.70;;
6517;SDS011;3292;48.944;9.240;2024-01-30T01:06:40;11.40;;;9.40;;
6517;SDS011;3292;48.944;9.240;2024-01-30T01:09:09;11.27;;;10.07;;
6517;SDS011;3292;48.944;9.240;2024-01-30T01:11:36;13.23;;;10.13;;
6517;SDS011;3292;48.944;9.240;2024-01-30T01:14:04;12.40;;;9.60;;
6517;SDS011;3292;48.944;9.240;2024-01-30T01:16:32;11.60;;;9.43;;
6517;SDS011;3292;48.944;9.240;2024-01-30T01:18:59;10.77;;;8.60;;
6517;SDS011;3292;48.944;9.240;2024-01-30T01:21:26;10.23;;;8.47;;
6517;SDS011;3292;48.944;9.240;2024-01-30T01:23:53;11.27;;;8.47;;
6517;SDS011;3292;48.944;9.240;2024-01-30T01:26:20;12.43;;;8.97;;
6517;SDS011;3292;48.944;9.240;2024-01-30T01:28:47;10.17;;;8.70;;
6517;SDS011;3292;48.944;9.240;2024-01-30T01:31:14;11.20;;;8.87;;
6517;SDS011;3292;48.944;9.240;2024-01-30T01:33:44;9.70;;;8.10;;
6517;SDS011;3292;48.944;9.240;2024-01-30T01:36:10;9.50;;;8.40;;
6517;SDS011;3292;48.944;9.240;2024-01-30T01:38:37;10.70;;;9.23;;
6517;SDS011;3292;48.944;9.240;2024-01-30T01:41:04;9.97;;;8.47;;
6517;SDS011;3292;48.944;9.240;2024-01-30T01:43:31;9.60;;;8.43;;
6517;SDS011;3292;48.944;9.240;2024-01-30T01:45:58;11.77;;;9.50;;
6517;SDS011;3292;48.944;9.240;2024-01-30T01:48:25;9.87;;;8.53;;
6517;SDS011;3292;48.944;9.240;2024-01-30T01:50:54;12.60;;;9.27;;
6517;SDS011;3292;48.944;9.240;2024-01-30T01:53:20;10.47;;;8.57;;
6517;SDS011;3292;48.944;9.240;2024-01-30T01:55:48;11.57;;;9.13;;
6517;SDS011;3292;48.944;9.240;2024-01-30T01:58:15;11.03;;;8.60;;
6517;SDS011;3292;48.944;9.240;2024-01-30T02:00:42;11.47;;;8.67;;
6517;SDS011;3292;48.944;9.240;2024-01-30T02:03:09;11.80;;;8.83;;
6517;SDS011;3292;48.944;9.240;2024-01-30T02:05:37;10.80;;;8.83;;
6517;SDS011;3292;48.944;9.240;2024-01-30T02:08:07;11.30;;;9.13;;
6517;SDS011;3292;48.944;9.240;2024-01-30T02:10:35;9.47;;;8.47;;
6517;SDS011;3292;48.944;9.240;2024-01-30T02:13:01;10.03;;;8.37;;
6517;SDS011;3292;48.944;9.240;2024-01-30T02:15:29;11.57;;;8.77;;
6517;SDS011;3292;48.944;9.240;2024-01-30T02:17:56;8.70;;;7.90;;
6517;SDS011;3292;48.944;9.240;2024-01-30T02:20:23;9.27;;;8.30;;
6517;SDS011;3292;48.944;9.240;2024-01-30T02:22:52;14.03;;;9.03;;
6517;SDS011;3292;48.944;9.240;2024-01-30T02:25:29;10.40;;;8.60;;
6517;SDS011;3292;48.944;9.240;2024-01-30T02:27:56;11.07;;;9.00;;
6517;SDS011;3292;48.944;9.240;2024-01-30T02:30:23;10.80;;;8.70;;
6517;SDS011;3292;48.944;9.240;2024-01-30T02:32:50;10.57;;;8.83;;
6517;SDS011;3292;48.944;9.240;2024-01-30T02:35:17;11.33;;;8.50;;
6517;SDS011;3292;48.944;9.240;2024-01-30T02:37:44;12.80;;;9.27;;
6517;SDS011;3292;48.944;9.240;2024-01-30T02:40:12;10.63;;;9.30;;
6517;SDS011;3292;48.944;9.240;2024-01-30T02:42:39;13.63;;;9.03;;
6517;SDS011;3292;48.944;9.240;2024-01-30T02:45:07;13.27;;;8.90;;
6517;SDS011;3292;48.944;9.240;2024-01-30T02:47:34;12.03;;;10.07;;
6517;SDS011;3292;48.944;9.240;2024-01-30T02:50:01;13.30;;;10.07;;
6517;SDS011;3292;48.944;9.240;2024-01-30T02:52:28;11.90;;;9.83;;
6517;SDS011;3292;48.944;9.240;2024-01-30T02:54:55;12.13;;;9.37;;
6517;SDS011;3292;48.944;9.240;2024-01-30T02:57:23;13.73;;;10.13;;
6517;SDS011;3292;48.944;9.240;2024-01-30T02:59:50;13.73;;;10.47;;
6517;SDS011;3292;48.944;9.240;2024-01-30T03:02:16;12.50;;;9.60;;
6517;SDS011;3292;48.944;9.240;2024-01-30T03:04:43;12.93;;;10.07;;
6517;SDS011;3292;48.944;9.240;2024-01-30T03:07:10;12.53;;;9.67;;
6517;SDS011;3292;48.944;9.240;2024-01-30T03:09:37;11.70;;;9.13;;
6517;SDS011;3292;48.944;9.240;2024-01-30T03:12:04;13.33;;;10.03;;
6517;SDS011;3292;48.944;9.240;2024-01-30T03:14:33;11.73;;;8.80;;
6517;SDS011;3292;48.944;9.240;2024-01-30T03:17:00;11.23;;;9.57;;
6517;SDS011;3292;48.944;9.240;2024-01-30T03:19:26;14.27;;;9.80;;
6517;SDS011;3292;48.944;9.240;2024-01-30T03:21:53;11.27;;;9.13;;
6517;SDS011;3292;48.944;9.240;2024-01-30T03:24:20;13.47;;;9.53;;
6517;SDS011;3292;48.944;9.240;2024-01-30T03:26:47;11.33;;;9.63;;
6517;SDS011;3292;48.944;9.240;2024-01-30T03:29:13;12.17;;;9.03;;
6517;SDS011;3292;48.944;9.240;2024-01-30T03:31:42;12.30;;;9.77;;
6517;SDS011;3292;48.944;9.240;2024-01-30T03:34:08;11.53;;;9.60;;
6517;SDS011;3292;48.944;9.240;2024-01-30T03:36:35;13.77;;;9.50;;
6517;SDS011;3292;48.944;9.240;2024-01-30T03:39:02;11.07;;;9.53;;
6517;SDS011;3292;48.944;9.240;2024-01-30T03:41:29;10.87;;;8.93;;
6517;SDS011;3292;48.944;9.240;2024-01-30T03:43:56;12.33;;;9.00;;
6517;SDS011;3292;48.944;9.240;2024-01-30T03:46:23;11.87;;;8.97;;
6517;SDS011;3292;48.944;9.240;2024-01-30T03:48:51;12.80;;;9.67;;
6517;SDS011;3292;48.944;9.240;2024-01-30T03:51:18;11.03;;;9.40;;
6517;SDS011;3292;48.944;9.240;2024-01-30T03:53:45;9.40;;;8.47;;
6517;SDS011;3292;48.944;9.240;2024-01-30T03:56:12;10.03;;;8.07;;
6517;SDS011;3292;48.944;9.240;2024-01-30T03:58:39;11.40;;;9.03;;
6517;SDS011;3292;48.944;9.240;2024-01-30T04:01:06;10.40;;;8.17;;
6517;SDS011;3292;48.944;9.240;2024-01-30T04:03:33;9.63;;;8.63;;
6517;SDS011;3292;48.944;9.240;2024-01-30T04:06:01;12.73;;;8.97;;
6517;SDS011;3292;48.944;9.240;2024-01-30T04:08:28;11.57;;;7.90;;
6517;SDS011;3292;48.944;9.240;2024-01-30T04:10:55;10.33;;;8.67;;
6517;SDS011;3292;48.944;9.240;2024-01-30T04:13:22;12.00;;;8.83;;
6517;SDS011;3292;48.944;9.240;2024-01-30T04:15:48;10.73;;;8.73;;
6517;SDS011;3292;48.944;9.240;2024-01-30T04:18:15;10.17;;;8.97;;
6517;SDS011;3292;48.944;9.240;2024-01-30T04:20:42;11.60;;;8.70;;
6517;SDS011;3292;48.944;9.240;2024-01-30T04:23:10;11.67;;;9.20;;
6517;SDS011;3292;48.944;9.240;2024-01-30T04:25:37;10.40;;;8.70;;
6517;SDS011;3292;48.944;9.240;2024-01-30T04:28:04;11.60;;;9.20;;
6517;SDS011;3292;48.944;9.240;2024-01-30T04:30:31;11.50;;;8.33;;
6517;SDS011;3292;48.944;9.240;2024-01-30T04:32:57;12.20;;;9.57;;
6517;SDS011;3292;48.944;9.240;2024-01-30T04:35:24;10.83;;;8.93;;
6517;SDS011;3292;48.944;9.240;2024-01-30T04:37:51;10.63;;;9.03;;
6517;SDS011;3292;48.944;9.240;2024-01-30T04:40:20;11.43;;;8.10;;
6517;SDS011;3292;48.944;9.240;2024-01-30T04:42:47;11.00;;;8.83;;
6517;SDS011;3292;48.944;9.240;2024-01-30T04:45:14;10.80;;;8.70;;
6517;SDS011;3292;48.944;9.240;2024-01-30T04:47:41;10.97;;;8.47;;
6517;SDS011;3292;48.944;9.240;2024-01-30T04:50:08;12.87;;;8.77;;
6517;SDS011;3292;48.944;9.240;2024-01-30T04:52:35;9.77;;;8.67;;
6517;SDS011;3292;48.944;9.240;2024-01-30T04:55:02;11.30;;;9.10;;
6517;SDS011;3292;48.944;9.240;2024-01-30T04:57:30;12.37;;;9.07;;
6517;SDS011;3292;48.944;9.240;2024-01-30T04:59:58;12.03;;;9.83;;
6517;SDS011;3292;48.944;9.240;2024-01-30T05:02:25;11.67;;;9.90;;
6517;SDS011;3292;48.944;9.240;2024-01-30T05:04:53;10.80;;;9.00;;
6517;SDS011;3292;48.944;9.240;2024-01-30T05:07:19;10.60;;;9.07;;
6517;SDS011;3292;48.944;9.240;2024-01-30T05:09:46;14.27;;;10.07;;
6517;SDS011;3292;48.944;9.240;2024-01-30T05:12:13;10.40;;;9.07;;
6517;SDS011;3292;48.944;9.240;2024-01-30T05:14:41;10.97;;;8.10;;
6517;SDS011;3292;48.944;9.240;2024-01-30T05:17:08;10.70;;;9.20;;
6517;SDS011;3292;48.944;9.240;2024-01-30T05:19:37;13.37;;;9.20;;
6517;SDS011;3292;48.944;9.240;2024-01-30T05:22:04;10.87;;;8.70;;
6517;SDS011;3292;48.944;9.240;2024-01-30T05:24:31;12.03;;;9.07;;
6517;SDS011;3292;48.944;9.240;2024-01-30T05:26:58;12.23;;;9.17;;
6517;SDS011;3292;48.944;9.240;2024-01-30T05:29:25;10.50;;;9.40;;
6517;SDS011;3292;48.944;9.240;2024-01-30T05:31:53;11.27;;;8.37;;
6517;SDS011;3292;48.944;9.240;2024-01-30T05:34:20;13.73;;;8.57;;
6517;SDS011;3292;48.944;9.240;2024-01-30T05:36:46;9.53;;;8.53;;
6517;SDS011;3292;48.944;9.240;2024-01-30T05:39:13;10.17;;;8.30;;
6517;SDS011;3292;48.944;9.240;2024-01-30T05:41:40;12.77;;;9.37;;
6517;SDS011;3292;48.944;9.240;2024-01-30T05:44:07;10.43;;;9.13;;
6517;SDS011;3292;48.944;9.240;2024-01-30T05:46:34;9.80;;;8.80;;
6517;SDS011;3292;48.944;9.240;2024-01-30T05:49:03;12.43;;;8.37;;
6517;SDS011;3292;48.944;9.240;2024-01-30T05:51:30;10.03;;;8.90;;
6517;SDS011;3292;48.944;9.240;2024-01-30T05:53:56;10.93;;;8.80;;
6517;SDS011;3292;48.944;9.240;2024-01-30T05:56:23;10.03;;;8.00;;
6517;SDS011;3292;48.944;9.240;2024-01-30T05:58:50;10.30;;;8.77;;
6517;SDS011;3292;48.944;9.240;2024-01-30T06:01:17;9.20;;;8.17;;
6517;SDS011;3292;48.944;9.240;2024-01-30T06:03:43;10.90;;;9.13;;
6517;SDS011;3292;48.944;9.240;2024-01-30T06:06:12;10.77;;;9.33;;
6517;SDS011;3292;48.944;9.240;2024-01-30T06:08:38;17.77;;;12.77;;
6517;SDS011;3292;48.944;9.240;2024-01-30T06:11:05;12.23;;;11.03;;
6517;SDS011;3292;48.944;9.240;2024-01-30T06:13:35;12.90;;;11.47;;
6517;SDS011;3292;48.944;9.240;2024-01-30T06:16:02;14.43;;;11.83;;
6517;SDS011;3292;48.944;9.240;2024-01-30T06:18:30;10.57;;;9.47;;
6517;SDS011;3292;48.944;9.240;2024-01-30T06:20:57;9.93;;;8.97;;
6517;SDS011;3292;48.944;9.240;2024-01-30T06:23:25;11.17;;;9.60;;
6517;SDS011;3292;48.944;9.240;2024-01-30T06:25:52;11.40;;;9.37;;
6517;SDS011;3292;48.944;9.240;2024-01-30T06:28:19;9.43;;;8.37;;
6517;SDS011;3292;48.944;9.240;2024-01-30T06:30:46;11.73;;;9.53;;
6517;SDS011;3292;48.944;9.240;2024-01-30T06:33:13;9.20;;;8.30;;
6517;SDS011;3292;48.944;9.240;2024-01-30T06:35:40;11.90;;;10.20;;
6517;SDS011;3292;48.944;9.240;2024-01-30T06:38:07;12.57;;;9.53;;
6517;SDS011;3292;48.944;9.240;2024-01-30T06:40:35;9.70;;;8.60;;
6517;SDS011;3292;48.944;9.240;2024-01-30T06:43:02;11.87;;;9.23;;
6517;SDS011;3292;48.944;9.240;2024-01-30T06:45:30;10.47;;;9.17;;
6517;SDS011;3292;48.944;9.240;2024-01-30T06:47:57;13.17;;;8.93;;
6517;SDS011;3292;48.944;9.240;2024-01-30T06:50:24;10.53;;;8.80;;
6517;SDS011;3292;48.944;9.240;2024-01-30T06:52:51;10.93;;;9.43;;
6517;SDS011;3292;48.944;9.240;2024-01-30T06:55:18;9.70;;;8.50;;
6517;SDS011;3292;48.944;9.240;2024-01-30T06:57:46;13.10;;;9.63;;
6517;SDS011;3292;48.944;9.240;2024-01-30T07:00:13;10.53;;;9.50;;
6517;SDS011;3292;48.944;9.240;2024-01-30T07:02:41;10.70;;;9.23;;
6517;SDS011;3292;48.944;9.240;2024-01-30T07:05:08;10.50;;;8.80;;
6517;SDS011;3292;48.944;9.240;2024-01-30T07:07:34;11.33;;;8.90;;
6517;SDS011;3292;48.944;9.240;2024-01-30T07:10:01;9.70;;;8.77;;
6517;SDS011;3292;48.944;9.240;2024-01-30T07:12:30;13.27;;;10.00;;
6517;SDS011;3292;48.944;9.240;2024-01-30T07:14:58;12.90;;;9.77;;
6517;SDS011;3292;48.944;9.240;2024-01-30T07:17:26;9.93;;;8.90;;
6517;SDS011;3292;48.944;9.240;2024-01-30T07:19:52;9.70;;;8.70;;
6517;SDS011;3292;48.944;9.240;2024-01-30T07:22:19;13.30;;;9.87;;
6517;SDS011;3292;48.944;9.240;2024-01-30T07:24:46;12.67;;;10.13;;
6517;SDS011;3292;48.944;9.240;2024-01-30T07:27:13;13.17;;;9.00;;
6517;SDS011;3292;48.944;9.240;2024-01-30T07:29:42;10.87;;;9.43;;
6517;SDS011;3292;48.944;9.240;2024-01-30T07:32:10;10.27;;;9.17;;
6517;SDS011;3292;48.944;9.240;2024-01-30T07:34:37;10.93;;;9.37;;
6517;SDS011;3292;48.944;9.240;2024-01-30T07:37:04;11.30;;;9.30;;
6517;SDS011;3292;48.944;9.240;2024-01-30T07:39:33;12.50;;;9.00;;
6517;SDS011;3292;48.944;9.240;2024-01-30T07:42:00;12.17;;;9.00;;
6517;SDS011;3292;48.944;9.240;2024-01-30T07:44:27;10.93;;;8.73;;
6517;SDS011;3292;48.944;9.240;2024-01-30T07:46:54;12.30;;;9.40;;
6517;SDS011;3292;48.944;9.240;2024-01-30T07:49:23;12.80;;;10.60;;
6517;SDS011;3292;48.944;9.240;2024-01-30T07:51:50;14.60;;;11.87;;
6517;SDS011;3292;48.944;9.240;2024-01-30T07:54:17;17.13;;;15.43;;
6517;SDS011;3292;48.944;9.240;2024-01-30T07:56:44;20.50;;;18.37;;
6517;SDS011;3292;48.944;9.240;2024-01-30T07:59:10;20.07;;;17.97;;
6517;SDS011;3292;48.944;9.240;2024-01-30T08:01:38;19.83;;;17.90;;
6517;SDS011;3292;48.944;9.240;2024-01-30T08:04:05;17.00;;;15.23;;
6517;SDS011;3292;48.944;9.240;2024-01-30T08:06:33;14.50;;;12.90;;
6517;SDS011;3292;48.944;9.240;2024-01-30T08:08:59;14.60;;;12.20;;
6517;SDS011;3292;48.944;9.240;2024-01-30T08:11:26;13.80;;;11.63;;
6517;SDS011;3292;48.944;9.240;2024-01-30T08:13:54;14.00;;;11.67;;
6517;SDS011;3292;48.944;9.240;2024-01-30T08:16:21;14.53;;;11.00;;
6517;SDS011;3292;48.944;9.240;2024-01-30T08:18:48;13.00;;;10.97;;
6517;SDS011;3292;48.944;9.240;2024-01-30T08:21:15;10.27;;;9.27;;
6517;SDS011;3292;48.944;9.240;2024-01-30T08:23:43;10.43;;;9.33;;
6517;SDS011;3292;48.944;9.240;2024-01-30T08:26:10;11.20;;;8.63;;
6517;SDS011;3292;48.944;9.240;2024-01-30T08:28:37;10.23;;;9.10;;
6517;SDS011;3292;48.944;9.240;2024-01-30T08:31:03;12.43;;;8.10;;
6517;SDS011;3292;48.944;9.240;2024-01-30T08:33:30;10.80;;;8.40;;
6517;SDS011;3292;48.944;9.240;2024-01-30T08:35:57;9.37;;;8.30;;
6517;SDS011;3292;48.944;9.240;2024-01-30T08:38:24;11.90;;;8.30;;
6517;SDS011;3292;48.944;9.240;2024-01-30T08:40:52;9.77;;;8.77;;
6517;SDS011;3292;48.944;9.240;2024-01-30T08:43:19;9.83;;;8.23;;
6517;SDS011;3292;48.944;9.240;2024-01-30T08:45:46;9.57;;;8.57;;
6517;SDS011;3292;48.944;9.240;2024-01-30T08:48:12;10.33;;;9.13;;
6517;SDS011;3292;48.944;9.240;2024-01-30T08:50:39;11.27;;;8.67;;
6517;SDS011;3292;48.944;9.240;2024-01-30T08:53:06;10.70;;;8.90;;
6517;SDS011;3292;48.944;9.240;2024-01-30T08:55:33;9.93;;;8.83;;
6517;SDS011;3292;48.944;9.240;2024-01-30T08:58:01;11.97;;;9.10;;
6517;SDS011;3292;48.944;9.240;2024-01-30T09:00:29;10.13;;;8.50;;
6517;SDS011;3292;48.944;9.240;2024-01-30T09:02:57;10.13;;;8.50;;
6517;SDS011;3292;48.944;9.240;2024-01-30T09:05:24;10.93;;;8.47;;
6517;SDS011;3292;48.944;9.240;2024-01-30T09:07:51;9.57;;;8.00;;
6517;SDS011;3292;48.944;9.240;2024-01-30T09:10:17;9.93;;;8.80;;
6517;SDS011;3292;48.944;9.240;2024-01-30T09:12:45;12.07;;;8.77;;
6517;SDS011;3292;48.944;9.240;2024-01-30T09:15:14;9.73;;;8.73;;
6517;SDS011;3292;48.944;9.240;2024-01-30T09:17:41;10.90;;;8.30;;
6517;SDS011;3292;48.944;9.240;2024-01-30T09:20:08;9.50;;;7.83;;
6517;SDS011;3292;48.944;9.240;2024-01-30T09:22:35;10.17;;;8.13;;
6517;SDS011;3292;48.944;9.240;2024-01-30T09:25:02;9.33;;;7.67;;
6517;SDS011;3292;48.944;9.240;2024-01-30T09:27:29;11.67;;;7.70;;
6517;SDS011;3292;48.944;9.240;2024-01-30T09:29:56;13.07;;;7.90;;
6517;SDS011;3292;48.944;9.240;2024-01-30T09:32:24;9.63;;;7.10;;
6517;SDS011;3292;48.944;9.240;2024-01-30T09:34:51;10.73;;;7.73;;
6517;SDS011;3292;48.944;9.240;2024-01-30T09:37:18;8.80;;;7.83;;
6517;SDS011;3292;48.944;9.240;2024-01-30T09:39:45;10.60;;;8.33;;
6517;SDS011;3292;48.944;9.240;2024-01-30T09:42:16;14.10;;;7.97;;
6517;SDS011;3292;48.944;9.240;2024-01-30T09:44:50;10.03;;;7.80;;
6517;SDS011;3292;48.944;9.240;2024-01-30T09:47:17;9.20;;;7.70;;
6517;SDS011;3292;48.944;9.240;2024-01-30T09:49:45;8.57;;;7.50;;
6517;SDS011;3292;48.944;9.240;2024-01-30T09:52:12;9.10;;;8.13;;
6517;SDS011;3292;48.944;9.240;2024-01-30T09:54:40;9.33;;;7.77;;
6517;SDS011;3292;48.944;9.240;2024-01-30T09:57:08;9.70;;;7.83;;
6517;SDS011;3292;48.944;9.240;2024-01-30T09:59:35;11.30;;;7.53;;
6517;SDS011;3292;48.944;9.240;2024-01-30T10:02:01;9.70;;;8.00;;
6517;SDS011;3292;48.944;9.240;2024-01-30T10:04:29;9.60;;;8.70;;
6517;SDS011;3292;48.944;9.240;2024-01-30T10:06:57;10.70;;;7.77;;
6517;SDS011;3292;48.944;9.240;2024-01-30T10:09:26;8.60;;;7.70;;
6517;SDS011;3292;48.944;9.240;2024-01-30T10:11:53;8.67;;;7.17;;
6517;SDS011;3292;48.944;9.240;2024-01-30T10:14:20;11.40;;;7.37;;
6517;SDS011;3292;48.944;9.240;2024-01-30T10:16:47;8.20;;;7.03;;
6517;SDS011;3292;48.944;9.240;2024-01-30T10:19:13;7.67;;;6.87;;
6517;SDS011;3292;48.944;9.240;2024-01-30T10:21:40;9.53;;;7.40;;
6517;SDS011;3292;48.944;9.240;2024-01-30T10:24:08;10.40;;;7.03;;
6517;SDS011;3292;48.944;9.240;2024-01-30T10:26:37;9.53;;;7.23;;
6517;SDS011;3292;48.944;9.240;2024-01-30T10:29:04;9.70;;;7.23;;
6517;SDS011;3292;48.944;9.240;2024-01-30T10:31:31;9.17;;;7.50;;
6517;SDS011;3292;48.944;9.240;2024-01-30T10:33:58;7.90;;;6.97;;
6517;SDS011;3292;48.944;9.240;2024-01-30T10:36:26;9.50;;;7.93;;
6517;SDS011;3292;48.944;9.240;2024-01-30T10:38:55;9.40;;;7.30;;
6517;SDS011;3292;48.944;9.240;2024-01-30T10:41:27;9.50;;;8.03;;
6517;SDS011;3292;48.944;9.240;2024-01-30T10:43:58;9.13;;;7.43;;
6517;SDS011;3292;48.944;9.240;2024-01-30T10:46:34;9.13;;;8.17;;
6517;SDS011;3292;48.944;9.240;2024-01-30T10:49:04;9.40;;;7.80;;
6517;SDS011;3292;48.944;9.240;2024-01-30T10:51:31;9.03;;;7.37;;
6517;SDS011;3292;48.944;9.240;2024-01-30T10:54:00;8.30;;;7.37;;
6517;SDS011;3292;48.944;9.240;2024-01-30T10:56:30;11.27;;;7.33;;
6517;SDS011;3292;48.944;9.240;2024-01-30T10:58:59;9.17;;;7.43;;
6517;SDS011;3292;48.944;9.240;2024-01-30T11:01:26;10.17;;;7.20;;
6517;SDS011;3292;48.944;9.240;2024-01-30T11:03:54;9.43;;;7.40;;
6517;SDS011;3292;48.944;9.240;2024-01-30T11:06:22;8.57;;;7.23;;
6517;SDS011;3292;48.944;9.240;2024-01-30T11:09:00;9.10;;;7.47;;
6517;SDS011;3292;48.944;9.240;2024-01-30T11:11:30;9.50;;;8.03;;
6517;SDS011;3292;48.944;9.240;2024-01-30T11:14:00;9.83;;;7.17;;
6517;SDS011;3292;48.944;9.240;2024-01-30T11:16:30;9.47;;;6.93;;
6517;SDS011;3292;48.944;9.240;2024-01-30T11:19:00;11.97;;;7.60;;
6517;SDS011;3292;48.944;9.240;2024-01-30T11:21:27;9.10;;;7.63;;
6517;SDS011;3292;48.944;9.240;2024-01-30T11:23:54;8.93;;;7.43;;
6517;SDS011;3292;48.944;9.240;2024-01-30T11:26:23;8.93;;;7.50;;
6517;SDS011;3292;48.944;9.240;2024-01-30T11:28:55;10.90;;;7.57;;
6517;SDS011;3292;48.944;9.240;2024-01-30T11:31:21;9.37;;;8.33;;
6517;SDS011;3292;48.944;9.240;2024-01-30T11:33:52;9.60;;;7.43;;
6517;SDS011;3292;48.944;9.240;2024-01-30T11:36:20;9.37;;;8.37;;
6517;SDS011;3292;48.944;9.240;2024-01-30T11:38:51;10.97;;;7.93;;
6517;SDS011;3292;48.944;9.240;2024-01-30T11:41:24;9.17;;;7.50;;
6517;SDS011;3292;48.944;9.240;2024-01-30T11:43:51;9.67;;;7.50;;
6517;SDS011;3292;48.944;9.240;2024-01-30T11:46:20;11.90;;;9.37;;
6517;SDS011;3292;48.944;9.240;2024-01-30T11:48:47;15.13;;;9.10;;
6517;SDS011;3292;48.944;9.240;2024-01-30T11:51:14;11.57;;;9.77;;
6517;SDS011;3292;48.944;9.240;2024-01-30T11:53:43;9.40;;;8.33;;
6517;SDS011;3292;48.944;9.240;2024-01-30T11:56:10;12.27;;;8.50;;
6517;SDS011;3292;48.944;9.240;2024-01-30T11:58:42;8.70;;;7.70;;
6517;SDS011;3292;48.944;9.240;2024-01-30T12:01:09;10.30;;;7.90;;
6517;SDS011;3292;48.944;9.240;2024-01-30T12:03:38;10.07;;;7.83;;
6517;SDS011;3292;48.944;9.240;2024-01-30T12:06:05;12.30;;;8.87;;
6517;SDS011;3292;48.944;9.240;2024-01-30T12:08:32;11.33;;;8.27;;
6517;SDS011;3292;48.944;9.240;2024-01-30T12:11:02;10.67;;;8.40;;
6517;SDS011;3292;48.944;9.240;2024-01-30T12:13:30;9.50;;;8.47;;
6517;SDS011;3292;48.944;9.240;2024-01-30T12:15:57;8.80;;;7.87;;
6517;SDS011;3292;48.944;9.240;2024-01-30T12:18:24;9.93;;;8.10;;
6517;SDS011;3292;48.944;9.240;2024-01-30T12:20:58;10.77;;;8.33;;
6517;SDS011;3292;48.944;9.240;2024-01-30T12:23:26;9.60;;;8.70;;
6517;SDS011;3292;48.944;9.240;2024-01-30T12:25:53;12.23;;;9.43;;
6517;SDS011;3292;48.944;9.240;2024-01-30T12:28:20;13.30;;;9.00;;
6517;SDS011;3292;48.944;9.240;2024-01-30T12:30:47;9.93;;;8.93;;
6517;SDS011;3292;48.944;9.240;2024-01-30T12:33:15;10.73;;;8.77;;
6517;SDS011;3292;48.944;9.240;2024-01-30T12:35:45;11.40;;;9.50;;
6517;SDS011;3292;48.944;9.240;2024-01-30T12:38:14;10.60;;;9.57;;
6517;SDS011;3292;48.944;9.240;2024-01-30T12:40:40;10.60;;;9.17;;
6517;SDS011;3292;48.944;9.240;2024-01-30T12:43:07;12.57;;;9.87;;
6517;SDS011;3292;48.944;9.240;2024-01-30T12:45:35;12.97;;;9.97;;
6517;SDS011;3292;48.944;9.240;2024-01-30T12:48:02;10.90;;;9.80;;
6517;SDS011;3292;48.944;9.240;2024-01-30T12:50:29;11.83;;;9.33;;
6517;SDS011;3292;48.944;9.240;2024-01-30T12:52:56;11.50;;;8.40;;
6517;SDS011;3292;48.944;9.240;2024-01-30T12:55:25;12.00;;;8.40;;
6517;SDS011;3292;48.944;9.240;2024-01-30T12:57:53;10.50;;;8.60;;
6517;SDS011;3292;48.944;9.240;2024-01-30T13:00:20;11.27;;;8.40;;
6517;SDS011;3292;48.944;9.240;2024-01-30T13:02:47;10.80;;;8.00;;
6517;SDS011;3292;48.944;9.240;2024-01-30T13:05:14;12.70;;;8.97;;
6517;SDS011;3292;48.944;9.240;2024-01-30T13:07:41;9.87;;;8.87;;
6517;SDS011;3292;48.944;9.240;2024-01-30T13:10:08;10.07;;;8.33;;
6517;SDS011;3292;48.944;9.240;2024-01-30T13:12:36;10.80;;;9.17;;
6517;SDS011;3292;48.944;9.240;2024-01-30T13:15:03;12.93;;;8.93;;
6517;SDS011;3292;48.944;9.240;2024-01-30T13:17:31;10.20;;;8.80;;
6517;SDS011;3292;48.944;9.240;2024-01-30T13:19:58;8.67;;;7.80;;
6517;SDS011;3292;48.944;9.240;2024-01-30T13:22:25;13.37;;;8.17;;
6517;SDS011;3292;48.944;9.240;2024-01-30T13:24:51;9.77;;;8.33;;
6517;SDS011;3292;48.944;9.240;2024-01-30T13:27:18;9.17;;;7.67;;
6517;SDS011;3292;48.944;9.240;2024-01-30T13:29:47;11.47;;;8.63;;
6517;SDS011;3292;48.944;9.240;2024-01-30T13:32:14;11.00;;;9.13;;
6517;SDS011;3292;48.944;9.240;2024-01-30T13:34:41;8.87;;;7.90;;
6517;SDS011;3292;48.944;9.240;2024-01-30T13:37:08;11.60;;;10.13;;
6517;SDS011;3292;48.944;9.240;2024-01-30T13:39:35;11.07;;;9.10;;
6517;SDS011;3292;48.944;9.240;2024-01-30T13:42:02;11.53;;;8.13;;
6517;SDS011;3292;48.944;9.240;2024-01-30T13:44:29;10.57;;;7.97;;
6517;SDS011;3292;48.944;9.240;2024-01-30T13:46:58;9.40;;;7.77;;
6517;SDS011;3292;48.944;9.240;2024-01-30T13:49:24;9.40;;;8.47;;
6517;SDS011;3292;48.944;9.240;2024-01-30T13:51:52;10.47;;;8.10;;
6517;SDS011;3292;48.944;9.240;2024-01-30T13:54:19;11.80;;;8.43;;
6517;SDS011;3292;48.944;9.240;2024-01-30T13:56:45;8.77;;;7.57;;
6517;SDS011;3292;48.944;9.240;2024-01-30T13:59:12;7.03;;;6.43;;
6517;SDS011;3292;48.944;9.240;2024-01-30T14:01:39;9.40;;;7.47;;
6517;SDS011;3292;48.944;9.240;2024-01-30T14:04:07;8.00;;;7.20;;
6517;SDS011;3292;48.944;9.240;2024-01-30T14:06:34;13.77;;;7.67;;
6517;SDS011;3292;48.944;9.240;2024-01-30T14:09:01;13.03;;;8.53;;
6517;SDS011;3292;48.944;9.240;2024-01-30T14:11:29;13.60;;;8.20;;
6517;SDS011;3292;48.944;9.240;2024-01-30T14:13:55;12.10;;;8.93;;
6517;SDS011;3292;48.944;9.240;2024-01-30T14:16:22;14.87;;;8.77;;
6517;SDS011;3292;48.944;9.240;2024-01-30T14:18:50;11.63;;;8.30;;
6517;SDS011;3292;48.944;9.240;2024-01-30T14:21:18;9.83;;;7.67;;
6517;SDS011;3292;48.944;9.240;2024-01-30T14:23:45;9.03;;;8.13;;
6517;SDS011;3292;48.944;9.240;2024-01-30T14:26:12;10.53;;;8.10;;
6517;SDS011;3292;48.944;9.240;2024-01-30T14:28:39;10.63;;;8.07;;
6517;SDS011;3292;48.944;9.240;2024-01-30T14:31:05;12.53;;;8.23;;
6517;SDS011;3292;48.944;9.240;2024-01-30T14:33:32;9.33;;;8.27;;
6517;SDS011;3292;48.944;9.240;2024-01-30T14:35:59;12.90;;;9.07;;
6517;SDS011;3292;48.944;9.240;2024-01-30T14:38:27;12.50;;;8.90;;
6517;SDS011;3292;48.944;9.240;2024-01-30T14:40:54;13.27;;;8.90;;
6517;SDS011;3292;48.944;9.240;2024-01-30T14:43:21;11.83;;;9.10;;
6517;SDS011;3292;48.944;9.240;2024-01-30T14:45:48;14.17;;;8.97;;
6517;SDS011;3292;48.944;9.240;2024-01-30T14:48:15;12.50;;;9.47;;
6517;SDS011;3292;48.944;9.240;2024-01-30T14:50:42;13.20;;;9.53;;
6517;SDS011;3292;48.944;9.240;2024-01-30T14:53:08;11.67;;;9.23;;
6517;SDS011;3292;48.944;9.240;2024-01-30T14:55:37;13.77;;;9.13;;
6517;SDS011;3292;48.944;9.240;2024-01-30T14:58:03;15.43;;;9.77;;
6517;SDS011;3292;48.944;9.240;2024-01-30T15:00:31;16.47;;;9.67;;
6517;SDS011;3292;48.944;9.240;2024-01-30T15:02:57;17.87;;;10.10;;